createdAt,value
2018-09-20T00:02:24.646Z,17.60
2018-09-20T00:04:54.307Z,17.60
2018-09-20T00:07:24.053Z,17.60
2018-09-20T00:09:53.932Z,17.60
2018-09-20T00:12:23.574Z,17.60
2018-09-20T00:14:53.218Z,17.60
2018-09-20T00:17:22.871Z,17.60
2018-09-20T00:19:52.459Z,17.60
2018-09-20T00:22:22.078Z,17.60
2018-09-20T00:24:51.651Z,17.60
2018-09-20T00:27:21.470Z,17.60
2018-09-20T00:29:51.069Z,17.60
2018-09-20T00:32:20.656Z,17.60
2018-09-20T00:34:50.349Z,17.60
2018-09-20T00:37:19.980Z,17.60
2018-09-20T00:39:49.720Z,17.60
2018-09-20T00:42:19.371Z,17.60
2018-09-20T00:44:48.951Z,17.60
2018-09-20T00:47:18.583Z,17.60
2018-09-20T00:49:48.185Z,17.60
2018-09-20T00:52:17.969Z,17.60
2018-09-20T00:54:47.619Z,17.60
2018-09-20T00:57:17.176Z,17.60
2018-09-20T00:59:46.801Z,17.60
2018-09-20T01:02:16.447Z,17.60
2018-09-20T01:04:46.003Z,17.60
2018-09-20T01:07:15.662Z,17.60
2018-09-20T01:09:45.345Z,17.50
2018-09-20T01:12:15.011Z,17.60
2018-09-20T01:14:44.577Z,17.50
2018-09-20T01:17:14.211Z,17.50
2018-09-20T01:19:43.813Z,17.50
2018-09-20T01:22:13.767Z,17.50
2018-09-20T01:24:43.476Z,17.50
2018-09-20T01:27:13.212Z,17.50
2018-09-20T01:29:43.024Z,17.50
2018-09-20T01:32:12.641Z,17.60
2018-09-20T01:34:42.237Z,17.50
2018-09-20T01:37:11.843Z,17.50
2018-09-20T01:39:41.559Z,17.50
2018-09-20T01:42:11.094Z,17.50
2018-09-20T01:44:40.785Z,17.50
2018-09-20T01:47:10.403Z,17.50
2018-09-20T01:49:40.275Z,17.50
2018-09-20T01:52:09.849Z,17.50
2018-09-20T01:54:39.352Z,17.50
2018-09-20T01:57:08.946Z,17.50
2018-09-20T01:59:38.493Z,17.50
2018-09-20T02:02:08.073Z,17.50
2018-09-20T02:04:37.666Z,17.50
2018-09-20T02:07:07.275Z,17.50
2018-09-20T02:09:36.876Z,17.50
2018-09-20T02:12:06.605Z,17.50
2018-09-20T02:14:36.352Z,17.50
2018-09-20T02:17:05.962Z,17.50
2018-09-20T02:19:35.582Z,17.60
2018-09-20T02:22:05.495Z,17.50
2018-09-20T02:24:35.849Z,17.60
2018-09-20T02:27:05.530Z,17.60
2018-09-20T02:29:35.312Z,17.60
2018-09-20T02:32:04.885Z,17.60
2018-09-20T02:34:34.417Z,17.60
2018-09-20T02:37:03.991Z,17.50
2018-09-20T02:39:33.643Z,17.50
2018-09-20T02:42:03.476Z,17.50
2018-09-20T02:44:33.065Z,17.60
2018-09-20T02:47:02.752Z,17.50
2018-09-20T02:49:32.436Z,17.60
2018-09-20T02:52:02.111Z,17.50
2018-09-20T02:54:31.807Z,17.60
2018-09-20T02:57:01.519Z,17.50
2018-09-20T02:59:31.124Z,17.50
2018-09-20T03:02:00.764Z,17.50
2018-09-20T03:04:30.700Z,17.50
2018-09-20T03:07:00.398Z,17.40
2018-09-20T03:09:30.950Z,17.50
2018-09-20T03:12:00.621Z,17.40
2018-09-20T03:14:30.208Z,17.50
2018-09-20T03:16:59.841Z,17.40
2018-09-20T03:19:29.507Z,17.40
2018-09-20T03:21:59.042Z,17.40
2018-09-20T03:24:28.684Z,17.30
2018-09-20T03:26:58.539Z,17.30
2018-09-20T03:29:28.274Z,17.30
2018-09-20T03:31:58.104Z,17.30
2018-09-20T03:34:27.721Z,17.30
2018-09-20T03:36:57.324Z,17.30
2018-09-20T03:39:26.983Z,17.20
2018-09-20T03:41:56.589Z,17.30
2018-09-20T03:44:26.376Z,17.30
2018-09-20T03:46:56.084Z,17.20
2018-09-20T03:49:25.713Z,17.20
2018-09-20T03:51:56.390Z,17.20
2018-09-20T03:54:26.001Z,17.20
2018-09-20T03:56:55.666Z,17.20
2018-09-20T03:59:25.310Z,17.20
2018-09-20T04:01:54.943Z,17.20
2018-09-20T04:04:24.549Z,17.20
2018-09-20T04:06:54.222Z,17.20
2018-09-20T04:09:24.211Z,17.20
2018-09-20T04:11:53.858Z,17.20
2018-09-20T04:14:23.465Z,17.20
2018-09-20T04:16:53.000Z,17.30
2018-09-20T04:19:22.668Z,17.30
2018-09-20T04:21:53.840Z,17.30
2018-09-20T04:24:23.531Z,17.20
2018-09-20T04:26:53.143Z,17.20
2018-09-20T04:29:23.127Z,17.10
2018-09-20T04:31:52.773Z,17.10
2018-09-20T04:34:22.367Z,16.90
2018-09-20T04:36:52.279Z,16.80
2018-09-20T04:39:21.858Z,16.70
2018-09-20T04:41:51.449Z,16.60
2018-09-20T04:44:21.103Z,16.60
2018-09-20T04:46:50.722Z,16.50
2018-09-20T04:49:20.453Z,16.40
2018-09-20T04:51:50.154Z,16.40
2018-09-20T04:54:19.712Z,16.40
2018-09-20T04:56:49.599Z,16.30
2018-09-20T04:59:19.616Z,16.30
2018-09-20T05:01:49.251Z,16.30
2018-09-20T05:04:19.791Z,16.30
2018-09-20T05:06:49.377Z,16.30
2018-09-20T05:09:19.330Z,16.30
2018-09-20T05:11:48.938Z,16.40
2018-09-20T05:14:18.544Z,16.40
2018-09-20T05:16:48.470Z,16.40
2018-09-20T05:19:18.114Z,16.40
2018-09-20T05:21:47.979Z,16.40
2018-09-20T05:24:17.659Z,16.50
2018-09-20T05:26:47.264Z,16.50
2018-09-20T05:29:16.974Z,16.50
2018-09-20T05:31:46.604Z,16.50
2018-09-20T05:34:16.303Z,16.60
2018-09-20T05:36:45.889Z,16.50
2018-09-20T05:39:15.614Z,16.50
2018-09-20T05:41:45.184Z,16.60
2018-09-20T05:44:14.786Z,16.60
2018-09-20T05:46:44.701Z,16.50
2018-09-20T05:49:14.679Z,16.50
2018-09-20T05:51:44.386Z,16.50
2018-09-20T05:54:14.042Z,16.50
2018-09-20T05:56:43.650Z,16.50
2018-09-20T05:59:13.343Z,16.40
2018-09-20T06:01:42.950Z,16.40
2018-09-20T06:04:12.512Z,16.40
2018-09-20T06:06:42.122Z,16.40
2018-09-20T06:09:11.719Z,16.40
2018-09-20T06:11:41.334Z,16.40
2018-09-20T06:14:11.199Z,16.30
2018-09-20T06:16:40.975Z,16.40
2018-09-20T06:19:10.561Z,16.30
2018-09-20T06:21:40.179Z,16.30
2018-09-20T06:24:10.108Z,16.30
2018-09-20T06:26:39.728Z,16.30
2018-09-20T06:29:09.323Z,16.30
2018-09-20T06:31:38.923Z,16.40
2018-09-20T06:34:08.520Z,16.40
2018-09-20T06:36:38.260Z,16.40
2018-09-20T06:39:10.024Z,16.40
2018-09-20T06:41:39.969Z,16.40
2018-09-20T06:44:09.528Z,16.40
2018-09-20T06:46:39.213Z,16.50
2018-09-20T06:49:08.809Z,16.40
2018-09-20T06:51:38.437Z,16.50
2018-09-20T06:54:08.281Z,16.50
2018-09-20T06:56:37.957Z,16.50
2018-09-20T06:59:07.549Z,16.50
2018-09-20T07:01:37.212Z,16.50
2018-09-20T07:04:07.380Z,16.60
2018-09-20T07:06:37.101Z,16.60
2018-09-20T07:09:10.259Z,16.60
2018-09-20T07:11:40.006Z,16.60
2018-09-20T07:14:09.579Z,16.70
2018-09-20T07:16:39.288Z,16.70
2018-09-20T07:19:08.936Z,16.70
2018-09-20T07:21:38.634Z,16.80
2018-09-20T07:24:08.279Z,16.80
2018-09-20T07:26:37.921Z,16.90
2018-09-20T07:29:07.625Z,16.90
2018-09-20T07:31:37.233Z,16.90
2018-09-20T07:34:06.920Z,16.90
2018-09-20T07:36:36.635Z,17.00
2018-09-20T07:39:08.379Z,17.00
2018-09-20T07:41:38.315Z,17.10
2018-09-20T07:44:07.993Z,17.10
2018-09-20T07:46:37.641Z,17.10
2018-09-20T07:49:07.279Z,17.10
2018-09-20T07:51:36.913Z,17.10
2018-09-20T07:54:06.535Z,17.20
2018-09-20T07:56:36.232Z,17.20
2018-09-20T07:59:06.605Z,17.20
2018-09-20T08:01:36.379Z,17.30
2018-09-20T08:04:05.923Z,17.30
2018-09-20T08:06:35.553Z,17.30
2018-09-20T08:09:08.102Z,17.40
2018-09-20T08:11:37.790Z,17.40
2018-09-20T08:14:07.449Z,17.40
2018-09-20T08:16:37.017Z,17.50
2018-09-20T08:19:06.758Z,17.50
2018-09-20T08:21:36.459Z,17.60
2018-09-20T08:24:06.293Z,17.60
2018-09-20T08:26:35.923Z,17.70
2018-09-20T08:29:05.641Z,17.70
2018-09-20T08:31:35.262Z,17.70
2018-09-20T08:34:05.057Z,17.70
2018-09-20T08:36:34.793Z,17.70
2018-09-20T08:39:07.339Z,17.70
2018-09-20T08:41:37.545Z,17.70
2018-09-20T08:44:07.850Z,17.80
2018-09-20T08:46:37.638Z,17.80
2018-09-20T08:49:07.604Z,17.80
2018-09-20T08:51:37.171Z,17.90
2018-09-20T08:54:06.962Z,17.90
2018-09-20T08:56:36.509Z,17.90
2018-09-20T08:59:06.069Z,18.00
2018-09-20T09:01:35.791Z,18.00
2018-09-20T09:04:05.403Z,18.10
2018-09-20T09:06:35.295Z,18.20
2018-09-20T09:09:07.126Z,18.20
2018-09-20T09:11:37.026Z,18.30
2018-09-20T09:14:06.849Z,18.50
2018-09-20T09:16:36.929Z,18.50
2018-09-20T09:19:06.551Z,18.50
2018-09-20T09:21:36.105Z,18.60
2018-09-20T09:24:05.597Z,18.50
2018-09-20T09:26:35.201Z,18.50
2018-09-20T09:29:04.825Z,18.60
2018-09-20T09:31:34.435Z,18.60
2018-09-20T09:34:04.005Z,18.60
2018-09-20T09:36:33.617Z,18.70
2018-09-20T09:39:03.424Z,18.80
2018-09-20T09:41:33.088Z,18.80
2018-09-20T09:44:02.638Z,18.80
2018-09-20T09:46:32.220Z,18.80
2018-09-20T09:49:01.819Z,18.90
2018-09-20T09:51:31.388Z,18.90
2018-09-20T09:54:01.023Z,19.00
2018-09-20T09:56:30.633Z,19.00
2018-09-20T09:59:00.261Z,19.10
2018-09-20T10:01:29.936Z,19.20
2018-09-20T10:03:59.557Z,19.20
2018-09-20T10:06:29.185Z,19.30
2018-09-20T10:08:59.077Z,19.40
2018-09-20T10:11:28.820Z,19.40
2018-09-20T10:13:58.387Z,19.50
2018-09-20T10:16:28.082Z,19.60
2018-09-20T10:18:58.186Z,19.60
2018-09-20T10:21:27.832Z,19.50
2018-09-20T10:23:57.515Z,19.60
2018-09-20T10:26:27.554Z,19.40
2018-09-20T10:28:57.133Z,19.40
2018-09-20T10:31:26.820Z,19.40
2018-09-20T10:33:56.535Z,19.40
2018-09-20T10:36:26.099Z,19.40
2018-09-20T10:38:55.790Z,19.40
2018-09-20T10:41:25.388Z,19.50
2018-09-20T10:43:55.057Z,19.50
2018-09-20T10:46:24.680Z,19.60
2018-09-20T10:48:54.411Z,19.50
2018-09-20T10:51:24.059Z,19.50
2018-09-20T10:53:53.682Z,19.50
2018-09-20T10:56:23.420Z,19.40
2018-09-20T10:58:53.068Z,19.30
2018-09-20T11:01:22.775Z,19.30
2018-09-20T11:03:52.415Z,19.30
2018-09-20T11:06:22.109Z,19.30
2018-09-20T11:08:51.776Z,19.30
2018-09-20T11:11:21.359Z,19.30
2018-09-20T11:13:50.991Z,19.20
2018-09-20T11:16:20.507Z,19.20
2018-09-20T11:18:50.169Z,19.20
2018-09-20T11:21:19.796Z,19.20
2018-09-20T11:23:49.475Z,19.30
2018-09-20T11:26:19.102Z,19.20
2018-09-20T11:28:48.708Z,19.20
2018-09-20T11:31:18.321Z,19.20
2018-09-20T11:33:47.907Z,19.20
2018-09-20T11:36:17.536Z,19.20
2018-09-20T11:38:48.051Z,19.20
2018-09-20T11:41:17.666Z,19.20
2018-09-20T11:43:47.318Z,19.20
2018-09-20T11:46:16.894Z,19.10
2018-09-20T11:48:46.682Z,19.10
2018-09-20T11:51:16.333Z,19.10
2018-09-20T11:53:45.937Z,19.10
2018-09-20T11:56:15.545Z,19.00
2018-09-20T11:58:45.475Z,19.00
2018-09-20T12:01:15.147Z,18.90
2018-09-20T12:03:44.764Z,18.80
2018-09-20T12:06:14.377Z,18.80
2018-09-20T12:08:44.031Z,18.80
2018-09-20T12:11:13.692Z,18.80
2018-09-20T12:13:43.334Z,18.70
2018-09-20T12:16:13.024Z,18.70
2018-09-20T12:18:42.679Z,18.70
2018-09-20T12:21:12.321Z,18.70
2018-09-20T12:23:42.268Z,18.60
2018-09-20T12:26:11.866Z,18.60
2018-09-20T12:28:41.459Z,18.60
2018-09-20T12:31:11.063Z,18.70
2018-09-20T12:33:40.685Z,18.70
2018-09-20T12:36:11.672Z,18.60
2018-09-20T12:38:41.373Z,18.60
2018-09-20T12:41:10.974Z,18.60
2018-09-20T12:43:40.726Z,18.70
2018-09-20T12:46:10.471Z,18.60
2018-09-20T12:48:40.167Z,18.60
2018-09-20T12:51:09.831Z,18.60
2018-09-20T12:53:39.463Z,18.60
2018-09-20T12:56:09.135Z,18.60
2018-09-20T12:58:42.365Z,18.50
2018-09-20T13:01:11.994Z,18.60
2018-09-20T13:03:41.652Z,18.50
2018-09-20T13:06:11.387Z,18.50
2018-09-20T13:08:41.013Z,18.50
2018-09-20T13:11:10.543Z,18.40
2018-09-20T13:13:40.581Z,18.40
2018-09-20T13:16:10.271Z,18.30
2018-09-20T13:18:39.886Z,18.30
2018-09-20T13:21:09.477Z,18.30
2018-09-20T13:23:39.202Z,18.10
2018-09-20T13:26:09.103Z,18.20
2018-09-20T13:28:38.678Z,18.20
2018-09-20T13:31:08.304Z,18.20
2018-09-20T13:33:37.962Z,18.10
2018-09-20T13:36:07.626Z,18.10
2018-09-20T13:38:37.295Z,18.00
2018-09-20T13:41:07.165Z,18.00
2018-09-20T13:43:36.862Z,18.00
2018-09-20T13:46:06.587Z,17.90
2018-09-20T13:48:36.166Z,17.90
2018-09-20T13:51:05.907Z,17.80
2018-09-20T13:53:35.525Z,17.80
2018-09-20T13:56:05.223Z,17.80
2018-09-20T13:58:34.864Z,17.80
2018-09-20T14:01:04.617Z,17.80
2018-09-20T14:03:34.344Z,17.80
2018-09-20T14:06:04.096Z,17.80
2018-09-20T14:08:33.653Z,17.80
2018-09-20T14:11:03.296Z,17.80
2018-09-20T14:13:32.939Z,17.80
2018-09-20T14:16:02.579Z,17.70
2018-09-20T14:18:32.157Z,17.70
2018-09-20T14:21:01.831Z,17.70
2018-09-20T14:23:31.492Z,17.70
2018-09-20T14:26:01.133Z,17.60
2018-09-20T14:28:30.780Z,17.60
2018-09-20T14:31:00.638Z,17.50
2018-09-20T14:33:30.316Z,17.60
2018-09-20T14:35:59.972Z,17.60
2018-09-20T14:38:29.585Z,17.60
2018-09-20T14:40:59.188Z,17.60
2018-09-20T14:43:28.772Z,17.60
2018-09-20T14:45:58.333Z,17.60
2018-09-20T14:48:27.977Z,17.60
2018-09-20T14:50:57.539Z,17.60
2018-09-20T14:53:27.196Z,17.60
2018-09-20T14:55:56.849Z,17.60
2018-09-20T14:58:26.459Z,17.60
2018-09-20T15:00:56.040Z,17.50
2018-09-20T15:03:25.589Z,17.50
2018-09-20T15:05:55.140Z,17.50
2018-09-20T15:08:24.739Z,17.50
2018-09-20T15:10:54.311Z,17.50
2018-09-20T15:13:27.418Z,17.50
2018-09-20T15:15:57.000Z,17.50
2018-09-20T15:18:26.871Z,17.40
2018-09-20T15:20:56.474Z,17.50
2018-09-20T15:23:26.025Z,17.50
2018-09-20T15:25:55.631Z,17.50
2018-09-20T15:28:25.221Z,17.50
2018-09-20T15:30:54.805Z,17.50
2018-09-20T15:33:24.328Z,17.50
2018-09-20T15:35:53.860Z,17.50
2018-09-20T15:38:23.424Z,17.50
2018-09-20T15:40:52.904Z,17.50
2018-09-20T15:43:22.392Z,17.40
2018-09-20T15:45:51.909Z,17.40
2018-09-20T15:48:21.466Z,17.40
2018-09-20T15:50:51.274Z,17.30
2018-09-20T15:53:20.806Z,17.30
2018-09-20T15:55:50.283Z,17.30
2018-09-20T15:58:19.837Z,17.20
2018-09-20T16:00:49.374Z,17.30
2018-09-20T16:03:18.922Z,17.30
2018-09-20T16:05:48.604Z,17.20
2018-09-20T16:08:18.226Z,17.20
2018-09-20T16:10:47.737Z,17.20
2018-09-20T16:13:17.268Z,17.10
2018-09-20T16:15:46.909Z,17.10
2018-09-20T16:18:16.458Z,17.10
2018-09-20T16:20:46.033Z,17.10
2018-09-20T16:23:15.653Z,17.10
2018-09-20T16:25:45.261Z,17.00
2018-09-20T16:29:32.873Z,17.00
2018-09-20T16:32:18.739Z,17.00
2018-09-20T16:35:22.567Z,17.00
2018-09-20T16:38:06.178Z,16.90
2018-09-20T16:40:37.428Z,16.80
2018-09-20T16:43:06.940Z,16.90
2018-09-20T16:45:36.521Z,16.80
2018-09-20T16:48:06.430Z,16.80
2018-09-20T16:50:35.997Z,16.80
2018-09-20T16:53:05.782Z,16.80
2018-09-20T16:55:35.304Z,16.80
2018-09-20T16:58:04.864Z,16.80
2018-09-20T17:00:34.827Z,16.70
2018-09-20T17:03:04.378Z,16.70
2018-09-20T17:05:33.924Z,16.70
2018-09-20T17:08:03.619Z,16.70
2018-09-20T17:10:33.175Z,16.70
2018-09-20T17:13:02.811Z,16.70
2018-09-20T17:15:32.686Z,16.60
2018-09-20T17:18:02.819Z,16.60
2018-09-20T17:20:33.944Z,16.60
2018-09-20T17:23:05.042Z,16.50
2018-09-20T17:25:35.705Z,16.50
2018-09-20T17:28:06.253Z,16.50
2018-09-20T17:30:35.845Z,16.50
2018-09-20T17:33:05.461Z,16.40
2018-09-20T17:35:35.567Z,16.40
2018-09-20T17:38:05.644Z,16.40
2018-09-20T17:40:36.499Z,16.30
2018-09-20T17:43:15.418Z,16.20
2018-09-20T17:45:44.891Z,16.20
2018-09-20T17:48:14.410Z,16.20
2018-09-20T17:50:43.936Z,16.20
2018-09-20T17:53:13.822Z,16.20
2018-09-20T17:55:44.206Z,16.20
2018-09-20T17:58:14.518Z,16.20
2018-09-20T18:00:44.415Z,16.10
2018-09-20T18:03:13.933Z,16.00
2018-09-20T18:05:43.483Z,16.00
2018-09-20T18:08:13.044Z,16.00
2018-09-20T18:10:42.834Z,16.00
2018-09-20T18:13:12.405Z,16.00
2018-09-20T18:15:41.930Z,16.00
2018-09-20T18:18:11.522Z,15.90
2018-09-20T18:20:42.044Z,16.00
2018-09-20T18:23:11.699Z,16.00
2018-09-20T18:25:41.467Z,15.90
2018-09-20T18:28:11.895Z,15.90
2018-09-20T18:30:42.024Z,15.90
2018-09-20T18:33:11.873Z,15.90
2018-09-20T18:35:41.491Z,15.90
2018-09-20T18:38:11.437Z,15.90
2018-09-20T18:40:40.967Z,15.80
2018-09-20T18:43:11.353Z,15.80
2018-09-20T18:48:44.028Z,15.80
2018-09-20T18:51:13.798Z,15.80
2018-09-20T18:53:43.302Z,15.70
2018-09-20T18:56:12.931Z,15.60
2018-09-20T18:58:42.499Z,15.70
2018-09-20T19:01:12.037Z,15.60
2018-09-20T19:03:41.517Z,15.60
2018-09-20T19:06:11.005Z,15.60
2018-09-20T19:08:40.573Z,15.60
2018-09-20T19:11:10.159Z,15.50
2018-09-20T19:13:39.670Z,15.50
2018-09-20T19:16:09.574Z,15.50
2018-09-20T19:18:39.368Z,15.50
2018-09-20T19:21:09.022Z,15.40
2018-09-20T19:23:38.775Z,15.50
2018-09-20T19:26:08.286Z,15.40
2018-09-20T19:28:37.815Z,15.40
2018-09-20T19:31:07.738Z,15.40
2018-09-20T19:33:37.904Z,15.30
2018-09-20T19:36:07.352Z,15.30
2018-09-20T19:38:36.874Z,15.30
2018-09-20T19:41:09.775Z,15.20
2018-09-20T19:43:43.765Z,15.10
2018-09-20T19:46:13.309Z,15.10
2018-09-20T19:48:42.921Z,15.00
2018-09-20T19:51:12.483Z,15.00
2018-09-20T19:53:41.940Z,15.00
2018-09-20T19:56:11.458Z,14.90
2018-09-20T19:58:41.078Z,14.90
2018-09-20T20:01:10.650Z,14.90
2018-09-20T20:03:40.198Z,14.80
2018-09-20T20:06:09.682Z,14.80
2018-09-20T20:08:39.231Z,14.70
2018-09-20T20:11:08.713Z,14.70
2018-09-20T20:13:38.282Z,14.70
2018-09-20T20:16:07.863Z,14.60
2018-09-20T20:18:37.333Z,14.60
2018-09-20T20:21:06.853Z,14.60
2018-09-20T20:23:37.029Z,14.60
2018-09-20T20:26:06.603Z,14.60
2018-09-20T20:28:36.201Z,14.60
2018-09-20T20:31:05.989Z,14.60
2018-09-20T20:33:35.579Z,14.60
2018-09-20T20:36:05.132Z,14.60
2018-09-20T20:38:34.672Z,14.60
2018-09-20T20:41:04.168Z,14.60
2018-09-20T20:43:33.625Z,14.50
2018-09-20T20:46:03.151Z,14.60
2018-09-20T20:48:32.647Z,14.50
2018-09-20T20:51:02.195Z,14.50
2018-09-20T20:53:31.702Z,14.50
2018-09-20T20:56:01.204Z,14.50
2018-09-20T20:58:30.838Z,14.50
2018-09-20T21:01:00.600Z,14.50
2018-09-20T21:03:30.125Z,14.50
2018-09-20T21:05:59.602Z,14.50
2018-09-20T21:08:29.080Z,14.50
2018-09-20T21:10:58.561Z,14.40
2018-09-20T21:13:28.044Z,14.40
2018-09-20T21:15:57.515Z,14.40
2018-09-20T21:18:27.097Z,14.40
2018-09-20T21:20:56.830Z,14.40
2018-09-20T21:23:26.290Z,14.40
2018-09-20T21:25:55.796Z,14.40
2018-09-20T21:28:25.397Z,14.30
2018-09-20T21:30:54.894Z,14.30
2018-09-20T21:33:24.365Z,14.30
2018-09-20T21:35:53.861Z,14.20
2018-09-20T21:38:23.376Z,14.20
2018-09-20T21:40:53.223Z,14.20
2018-09-20T21:43:22.753Z,14.20
2018-09-20T21:45:52.303Z,14.20
2018-09-20T21:48:21.870Z,14.20
2018-09-20T21:50:51.331Z,14.20
2018-09-20T21:53:20.855Z,14.20
2018-09-20T21:55:50.308Z,14.20
2018-09-20T21:58:19.801Z,14.20
2018-09-20T22:00:49.467Z,14.20
2018-09-20T22:03:18.929Z,14.10
2018-09-20T22:05:48.475Z,14.10
2018-09-20T22:08:17.999Z,14.10
2018-09-20T22:10:47.501Z,14.10
2018-09-20T22:13:16.991Z,14.10
2018-09-20T22:15:46.483Z,14.10
2018-09-20T22:18:15.981Z,14.10
2018-09-20T22:20:45.513Z,14.10
2018-09-20T22:23:15.001Z,14.10
2018-09-20T22:25:44.505Z,14.10
2018-09-20T22:28:14.004Z,14.10
2018-09-20T22:30:43.501Z,14.10
2018-09-20T22:33:12.959Z,14.10
2018-09-20T22:35:42.501Z,14.10
2018-09-20T22:38:11.990Z,14.10
2018-09-20T22:40:41.585Z,14.10
2018-09-20T22:43:11.068Z,14.20
2018-09-20T22:45:40.729Z,14.20
2018-09-20T22:48:10.221Z,14.20
2018-09-20T22:50:39.724Z,14.20
2018-09-20T22:53:09.207Z,14.20
2018-09-20T22:55:38.622Z,14.20
2018-09-20T22:58:08.185Z,14.20
2018-09-20T23:00:37.712Z,14.20
2018-09-20T23:03:07.219Z,14.20
2018-09-20T23:05:37.129Z,14.20
2018-09-20T23:08:06.687Z,14.20
2018-09-20T23:10:36.265Z,14.20
2018-09-20T23:13:06.244Z,14.20
2018-09-20T23:15:35.783Z,14.20
2018-09-20T23:18:05.426Z,14.20
2018-09-20T23:20:35.069Z,14.20
2018-09-20T23:23:04.607Z,14.20
2018-09-20T23:25:34.167Z,14.20
2018-09-20T23:28:03.697Z,14.10
2018-09-20T23:30:33.267Z,14.10
2018-09-20T23:33:02.746Z,14.10
2018-09-20T23:35:32.250Z,14.00
2018-09-20T23:38:01.773Z,14.00
2018-09-20T23:40:31.288Z,14.00
2018-09-20T23:43:00.805Z,14.00
2018-09-20T23:45:30.289Z,14.00
2018-09-20T23:47:59.797Z,14.00
2018-09-20T23:50:29.332Z,14.00
2018-09-20T23:52:58.912Z,14.00
2018-09-20T23:55:28.426Z,14.00
2018-09-20T23:57:57.899Z,14.10
